Time;durP1;ratioP1;P1;durP2;ratioP2;P2;SDS_P1;SDS_P2;PMS_P1;PMS_P2;Temp;Humidity;BMP_temperature;BMP_pressure;BME280_temperature;BME280_humidity;BME280_pressure;Samples;Min_cycle;Max_cycle;Signal;HPM_P1;HPM_P2
2024/04/20 00:00:09;;;;;;;4.07;4.07;;;8.00;99.90;;;;;;11407878;26;20228;-75
2024/04/20 00:05:14;;;;;;;4.10;4.10;;;8.10;99.90;;;;;;11407703;25;20232;-75
2024/04/20 00:10:21;;;;;;;3.87;3.87;;;8.10;99.90;;;;;;11348374;25;20301;-76
2024/04/20 00:15:25;;;;;;;4.30;4.30;;;8.00;99.90;;;;;;11452395;25;20234;-75
2024/04/20 00:20:32;;;;;;;4.10;4.10;;;8.00;99.90;;;;;;11378886;25;20240;-75
2024/04/20 00:25:41;;;;;;;4.00;4.00;;;7.90;99.90;;;;;;11451976;25;20325;-78
2024/04/20 00:30:45;;;;;;;4.10;4.10;;;7.80;99.90;;;;;;11427164;25;20236;-77
2024/04/20 00:35:49;;;;;;;3.90;3.90;;;7.80;99.90;;;;;;11390753;25;20240;-76
2024/04/20 00:40:58;;;;;;;3.93;3.93;;;7.70;99.90;;;;;;11407443;25;20236;-76
2024/04/20 00:46:03;;;;;;;4.07;4.07;;;7.70;99.90;;;;;;11352808;25;20241;-77
2024/04/20 00:51:08;;;;;;;3.70;3.70;;;7.70;99.90;;;;;;11400215;25;20228;-75
2024/04/20 00:56:15;;;;;;;3.30;3.30;;;7.80;99.90;;;;;;11331574;26;20233;-75
2024/04/20 01:01:19;;;;;;;3.30;3.30;;;7.80;99.90;;;;;;11485136;25;20822;-76
2024/04/20 01:06:23;;;;;;;3.40;3.40;;;7.80;99.90;;;;;;11444075;25;20333;-75
2024/04/20 01:11:30;;;;;;;3.00;3.00;;;7.80;99.90;;;;;;11351818;25;20237;-77
2024/04/20 01:16:35;;;;;;;3.13;3.13;;;7.80;99.90;;;;;;11455904;25;20238;-77
2024/04/20 01:21:39;;;;;;;2.60;2.60;;;7.90;99.90;;;;;;11356141;25;20260;-76
2024/04/20 01:26:46;;;;;;;2.10;2.10;;;7.90;99.90;;;;;;11454064;25;20235;-75
2024/04/20 01:31:50;;;;;;;2.60;2.60;;;7.90;99.90;;;;;;11350660;25;20247;-76
2024/04/20 01:36:54;;;;;;;3.00;3.00;;;7.90;99.90;;;;;;11384592;25;20639;-76
2024/04/20 01:42:00;;;;;;;2.90;2.90;;;7.90;99.90;;;;;;11418131;25;20236;-76
2024/04/20 01:47:04;;;;;;;2.80;2.80;;;7.90;99.90;;;;;;11409652;25;20231;-74
2024/04/20 01:52:09;;;;;;;2.90;2.90;;;7.90;99.90;;;;;;11462505;25;20235;-75
2024/04/20 01:57:16;;;;;;;3.30;3.30;;;8.00;99.90;;;;;;11352185;26;20731;-78
2024/04/20 02:02:21;;;;;;;3.03;3.03;;;7.90;99.90;;;;;;11408659;26;20679;-75
2024/04/20 02:07:25;;;;;;;2.90;2.90;;;7.90;99.90;;;;;;11412333;25;20646;-76
2024/04/20 02:12:32;;;;;;;2.10;2.10;;;7.90;99.90;;;;;;11357260;26;20629;-75
2024/04/20 02:17:36;;;;;;;3.00;3.00;;;8.00;99.90;;;;;;11449451;25;20721;-76
2024/04/20 02:22:40;;;;;;;3.20;3.20;;;7.90;99.80;;;;;;11355888;25;20229;-75
2024/04/20 02:27:47;;;;;;;3.10;3.10;;;7.90;99.80;;;;;;11381439;25;20242;-75
2024/04/20 02:32:50;;;;;;;2.80;2.80;;;7.90;99.70;;;;;;11430906;25;20236;-75
2024/04/20 02:37:54;;;;;;;2.67;2.67;;;7.80;99.20;;;;;;11396493;25;20233;-76
2024/04/20 02:43:01;;;;;;;2.80;2.80;;;7.80;99.70;;;;;;11460490;25;20318;-76
2024/04/20 02:48:06;;;;;;;2.60;2.60;;;7.80;99.10;;;;;;11423147;25;20865;-75
2024/04/20 02:53:10;;;;;;;2.37;2.37;;;7.80;98.90;;;;;;11355175;25;20221;-78
2024/04/20 02:58:17;;;;;;;3.00;3.00;;;7.90;99.10;;;;;;11408714;25;20232;-75
2024/04/20 03:03:21;;;;;;;2.10;2.10;;;7.90;99.00;;;;;;11409787;26;20228;-77
2024/04/20 03:08:25;;;;;;;2.43;2.43;;;7.90;98.80;;;;;;11406686;26;20270;-76
2024/04/20 03:13:32;;;;;;;2.17;2.17;;;7.90;98.70;;;;;;11408172;25;20270;-77
2024/04/20 03:18:36;;;;;;;2.27;2.27;;;7.90;98.40;;;;;;11407550;25;20274;-78
2024/04/20 03:23:40;;;;;;;2.00;2.00;;;7.80;98.00;;;;;;11409071;25;20232;-74
2024/04/20 03:28:47;;;;;;;1.97;1.97;;;7.80;98.10;;;;;;11408533;25;20236;-77
2024/04/20 03:33:51;;;;;;;1.83;1.83;;;7.70;98.30;;;;;;11408981;25;20318;-76
2024/04/20 03:38:55;;;;;;;2.10;2.10;;;7.70;98.30;;;;;;11407531;25;20232;-77
2024/04/20 03:44:01;;;;;;;1.63;1.63;;;7.70;98.20;;;;;;11401249;26;20266;-76
2024/04/20 03:49:05;;;;;;;1.83;1.83;;;7.80;98.40;;;;;;11408143;26;20263;-76
2024/04/20 03:54:09;;;;;;;1.50;1.50;;;7.80;98.30;;;;;;11408493;25;20232;-76
2024/04/20 03:59:16;;;;;;;1.50;1.50;;;7.80;98.30;;;;;;11407487;26;20758;-74
2024/04/20 04:04:20;;;;;;;1.70;1.70;;;7.80;98.10;;;;;;11407769;25;20856;-78
2024/04/20 04:09:24;;;;;;;1.20;1.20;;;7.90;98.20;;;;;;11374997;26;20240;-77
2024/04/20 04:14:31;;;;;;;1.10;1.10;;;7.90;97.90;;;;;;11407706;25;20243;-77
2024/04/20 04:19:35;;;;;;;1.20;1.20;;;7.90;97.90;;;;;;11406901;26;20235;-77
2024/04/20 04:24:39;;;;;;;1.47;1.47;;;7.90;98.10;;;;;;11406917;26;20670;-79
2024/04/20 04:29:45;;;;;;;1.40;1.40;;;8.00;97.90;;;;;;11358669;25;20236;-77
2024/04/20 04:34:50;;;;;;;1.40;1.40;;;8.00;97.80;;;;;;11373816;25;20271;-77
2024/04/20 04:39:54;;;;;;;0.87;0.87;;;8.00;98.00;;;;;;11407210;25;20227;-76
2024/04/20 04:45:01;;;;;;;1.30;1.30;;;8.00;97.60;;;;;;11352076;26;20263;-77
2024/04/20 04:50:05;;;;;;;1.37;1.37;;;8.00;97.70;;;;;;11393775;25;20240;-80
2024/04/20 04:55:09;;;;;;;1.30;1.30;;;7.90;97.90;;;;;;11377856;25;20705;-76
2024/04/20 05:00:17;;;;;;;1.30;1.30;;;7.90;98.20;;;;;;11405789;26;20767;-77
2024/04/20 05:05:21;;;;;;;1.80;1.80;;;7.90;98.40;;;;;;11406270;25;20246;-74
2024/04/20 05:10:25;;;;;;;2.20;2.20;;;7.80;98.20;;;;;;11357847;25;20233;-77
2024/04/20 05:15:31;;;;;;;3.00;3.00;;;7.70;98.40;;;;;;11454683;25;20235;-77
2024/04/20 05:20:36;;;;;;;2.80;2.80;;;7.50;98.80;;;;;;11374188;25;20688;-80
2024/04/20 05:25:40;;;;;;;3.30;3.30;;;7.40;99.10;;;;;;11455632;25;20673;-77
2024/04/20 05:30:47;;;;;;;4.37;4.37;;;7.30;99.60;;;;;;11347848;26;20237;-76
2024/04/20 05:35:51;;;;;;;4.70;4.70;;;7.30;99.90;;;;;;11410121;25;20306;-78
2024/04/20 05:40:56;;;;;;;4.60;4.60;;;7.20;99.90;;;;;;11355352;25;20260;-79
2024/04/20 05:46:02;;;;;;;5.27;5.27;;;7.20;99.90;;;;;;11455899;25;20644;-80
2024/04/20 05:51:07;;;;;;;4.67;4.67;;;7.20;99.90;;;;;;11381875;25;20316;-77
2024/04/20 05:56:11;;;;;;;4.27;4.27;;;7.20;99.90;;;;;;11364607;25;20233;-77
2024/04/20 06:01:18;;;;;;;3.80;3.80;;;7.30;99.90;;;;;;11335226;25;20309;-76
2024/04/20 06:06:22;;;;;;;3.70;3.70;;;7.20;99.90;;;;;;11403833;25;20224;-76
2024/04/20 06:11:26;;;;;;;3.53;3.53;;;7.30;99.90;;;;;;11356151;26;20229;-77
2024/04/20 06:16:33;;;;;;;1.80;1.80;;;7.40;99.90;;;;;;11461282;25;20273;-76
2024/04/20 06:21:37;;;;;;;2.40;2.40;;;7.50;99.90;;;;;;11337843;26;20237;-75
2024/04/20 06:26:41;;;;;;;2.30;2.30;;;7.60;99.90;;;;;;11460796;25;20238;-75
2024/04/20 06:31:48;;;;;;;2.17;2.17;;;7.60;99.50;;;;;;11336296;25;20229;-75
2024/04/20 06:36:52;;;;;;;1.63;1.63;;;7.70;99.20;;;;;;11392781;25;20231;-75
2024/04/20 06:41:56;;;;;;;2.30;2.30;;;7.50;99.00;;;;;;11425763;25;20648;-76
2024/04/20 06:47:03;;;;;;;1.40;1.40;;;7.50;99.10;;;;;;11354859;25;20245;-78
2024/04/20 06:52:09;;;;;;;1.47;1.47;;;7.50;99.20;;;;;;11391723;25;20760;-75
2024/04/20 06:57:13;;;;;;;1.33;1.33;;;7.50;99.00;;;;;;11407827;25;20634;-77
2024/04/20 07:02:19;;;;;;;0.93;0.93;;;7.60;99.00;;;;;;11402014;26;20240;-76
2024/04/20 07:07:23;;;;;;;1.30;1.30;;;7.70;98.50;;;;;;11406162;25;20359;-75
2024/04/20 07:12:28;;;;;;;1.20;1.20;;;7.90;98.60;;;;;;11409339;26;20255;-73
2024/04/20 07:17:35;;;;;;;1.20;1.20;;;8.10;97.50;;;;;;11408959;26;20318;-75
2024/04/20 07:22:39;;;;;;;0.93;0.93;;;8.50;98.00;;;;;;11405906;26;20224;-74
2024/04/20 07:27:44;;;;;;;0.93;0.93;;;8.70;96.70;;;;;;11406320;26;20274;-75
2024/04/20 07:32:51;;;;;;;0.90;0.90;;;8.80;96.20;;;;;;11403446;26;20228;-74
2024/04/20 07:37:55;;;;;;;0.70;0.70;;;9.00;96.60;;;;;;11399555;25;20275;-75
2024/04/20 07:42:59;;;;;;;0.73;0.73;;;9.30;95.70;;;;;;11451404;25;20626;-75
2024/04/20 07:48:06;;;;;;;0.70;0.70;;;9.60;95.00;;;;;;11384904;25;20263;-74
2024/04/20 07:53:10;;;;;;;0.50;0.50;;;9.80;94.80;;;;;;11429162;25;20238;-75
2024/04/20 07:58:15;;;;;;;0.70;0.70;;;10.10;94.20;;;;;;11391273;25;20228;-74
2024/04/20 08:03:21;;;;;;;0.63;0.63;;;10.30;92.90;;;;;;11428374;25;20341;-75
2024/04/20 08:08:25;;;;;;;0.60;0.60;;;10.30;93.00;;;;;;11355054;25;20288;-76
2024/04/20 08:13:30;;;;;;;0.50;0.50;;;10.40;92.20;;;;;;11460350;25;20334;-75
2024/04/20 08:18:37;;;;;;;0.70;0.70;;;10.50;92.60;;;;;;11419234;25;20263;-74
2024/04/20 08:23:41;;;;;;;0.70;0.70;;;10.50;92.50;;;;;;11332330;26;20320;-74
2024/04/20 08:28:45;;;;;;;0.60;0.60;;;10.40;92.10;;;;;;11434896;25;20236;-75
2024/04/20 08:33:52;;;;;;;0.60;0.60;;;10.60;91.50;;;;;;11325433;25;20756;-74
2024/04/20 08:38:56;;;;;;;0.60;0.60;;;10.70;91.00;;;;;;11400050;25;20228;-77
2024/04/20 08:44:03;;;;;;;0.70;0.70;;;10.80;90.90;;;;;;11351029;26;20259;-80
2024/04/20 08:49:11;;;;;;;0.60;0.60;;;10.90;90.90;;;;;;11432389;25;20803;-75
2024/04/20 08:54:18;;;;;;;0.60;0.60;;;10.80;90.40;;;;;;11349527;26;20237;-76
2024/04/20 08:59:22;;;;;;;0.80;0.80;;;10.60;88.60;;;;;;11430139;25;20262;-76
2024/04/20 09:04:29;;;;;;;0.80;0.80;;;10.40;90.20;;;;;;11364190;25;20330;-80
2024/04/20 09:09:34;;;;;;;0.63;0.63;;;10.40;89.50;;;;;;11404060;26;20592;-76
2024/04/20 09:14:38;;;;;;;0.80;0.80;;;10.30;90.30;;;;;;11412971;26;20709;-80
2024/04/20 09:19:45;;;;;;;0.70;0.70;;;10.40;90.30;;;;;;11356789;25;20318;-74
2024/04/20 09:24:49;;;;;;;0.53;0.53;;;10.80;90.20;;;;;;11322394;26;20267;-77
2024/04/20 09:29:53;;;;;;;0.80;0.80;;;11.10;89.40;;;;;;11428093;25;20235;-77
2024/04/20 09:34:59;;;;;;;0.50;0.50;;;11.40;88.20;;;;;;11347156;25;20271;-77
2024/04/20 09:40:03;;;;;;;0.53;0.53;;;11.60;86.20;;;;;;11388191;25;20236;-77
2024/04/20 09:45:10;;;;;;;0.60;0.60;;;11.90;86.70;;;;;;11412351;26;20805;-78
2024/04/20 09:50:19;;;;;;;0.70;0.70;;;12.00;84.50;;;;;;11411754;26;20812;-77
2024/04/20 09:55:30;;;;;;;0.60;0.60;;;12.00;81.10;;;;;;11409891;25;20331;-78
2024/04/20 10:00:36;;;;;;;0.50;0.50;;;11.90;80.30;;;;;;11404737;26;20773;-77
2024/04/20 10:05:43;;;;;;;0.60;0.60;;;12.00;81.80;;;;;;11411599;25;20327;-77
2024/04/20 10:10:48;;;;;;;0.40;0.40;;;12.10;81.00;;;;;;11359958;25;20225;-78
2024/04/20 10:15:54;;;;;;;0.60;0.60;;;11.90;81.20;;;;;;11441965;25;20818;-78
2024/04/20 10:21:01;;;;;;;0.50;0.50;;;12.00;80.60;;;;;;11377571;25;20263;-77
2024/04/20 10:26:05;;;;;;;0.50;0.50;;;11.90;81.90;;;;;;11475094;25;20575;-80
2024/04/20 10:31:09;;;;;;;0.50;0.50;;;12.00;82.80;;;;;;11346624;26;20225;-79
2024/04/20 10:36:16;;;;;;;0.50;0.50;;;11.90;82.20;;;;;;11373963;25;20263;-77
2024/04/20 10:41:21;;;;;;;0.50;0.50;;;11.90;82.70;;;;;;11358673;25;20229;-76
2024/04/20 10:46:25;;;;;;;0.60;0.60;;;12.00;80.90;;;;;;11477843;25;20342;-77
2024/04/20 10:51:32;;;;;;;0.50;0.50;;;12.10;80.80;;;;;;11430168;25;20324;-77
2024/04/20 10:56:42;;;;;;;0.60;0.60;;;12.00;81.40;;;;;;11347096;26;20245;-78
2024/04/20 11:01:46;;;;;;;0.50;0.50;;;11.90;81.80;;;;;;11368464;26;20220;-77
2024/04/20 11:06:57;;;;;;;0.50;0.50;;;11.80;82.90;;;;;;11376309;26;20677;-78
2024/04/20 11:12:03;;;;;;;0.50;0.50;;;11.90;82.80;;;;;;11348822;25;20228;-78
2024/04/20 11:17:08;;;;;;;0.60;0.60;;;11.90;81.70;;;;;;11481738;25;20578;-78
2024/04/20 11:22:15;;;;;;;0.50;0.50;;;12.00;82.20;;;;;;11326306;26;20241;-78
2024/04/20 11:27:19;;;;;;;0.50;0.50;;;12.00;79.30;;;;;;11470005;25;20326;-77
2024/04/20 11:32:23;;;;;;;0.60;0.60;;;12.00;77.50;;;;;;11354874;25;20241;-78
2024/04/20 11:37:32;;;;;;;0.60;0.60;;;12.00;78.00;;;;;;11370773;25;20232;-77
2024/04/20 11:42:37;;;;;;;0.50;0.50;;;12.10;77.90;;;;;;11405211;25;20232;-77
2024/04/20 11:47:42;;;;;;;0.60;0.60;;;12.20;79.10;;;;;;11407962;26;20335;-77
2024/04/20 11:58:16;;;;;;;0.60;0.60;;;12.60;77.90;;;;;;11413080;25;20244;-77
2024/04/20 12:03:20;;;;;;;0.50;0.50;;;12.50;76.50;;;;;;11407695;26;20322;-80
2024/04/20 12:08:27;;;;;;;0.50;0.50;;;12.60;78.00;;;;;;11407217;25;20244;-79
2024/04/20 12:13:31;;;;;;;0.50;0.50;;;12.70;77.30;;;;;;11407948;26;20608;-78
2024/04/20 12:18:35;;;;;;;0.60;0.60;;;12.80;77.90;;;;;;11406684;25;20274;-77
2024/04/20 12:23:42;;;;;;;0.53;0.53;;;12.80;77.40;;;;;;11407538;26;20243;-78
2024/04/20 12:28:46;;;;;;;0.50;0.50;;;12.90;77.10;;;;;;11312520;25;20330;-78
2024/04/20 12:33:50;;;;;;;0.40;0.40;;;13.00;75.10;;;;;;11337548;25;20254;-77
2024/04/20 12:38:57;;;;;;;0.60;0.60;;;13.00;74.40;;;;;;11336952;26;20236;-76
2024/04/20 12:44:00;;;;;;;0.50;0.50;;;13.10;74.40;;;;;;11297598;25;973641;-77
2024/04/20 12:49:04;;;;;;;0.57;0.57;;;13.10;75.60;;;;;;11405957;26;20281;-79
2024/04/20 12:54:11;;;;;;;0.60;0.60;;;13.20;72.50;;;;;;11405333;25;20224;-78
2024/04/20 12:59:16;;;;;;;0.50;0.50;;;13.20;74.50;;;;;;11404228;26;20236;-77
2024/04/20 13:04:22;;;;;;;0.60;0.60;;;13.10;71.00;;;;;;11403704;25;20322;-75
2024/04/20 13:09:28;;;;;;;0.50;0.50;;;12.90;70.70;;;;;;11349067;25;20241;-78
2024/04/20 13:14:32;;;;;;;0.50;0.50;;;12.70;72.40;;;;;;11486497;25;20269;-75
2024/04/20 13:19:36;;;;;;;0.60;0.60;;;12.70;73.10;;;;;;11385975;25;20237;-77
2024/04/20 13:24:43;;;;;;;0.40;0.40;;;12.60;69.80;;;;;;11492589;25;20243;-76
2024/04/20 13:29:47;;;;;;;0.60;0.60;;;12.70;71.30;;;;;;11386107;25;20561;-76
2024/04/20 13:34:56;;;;;;;0.70;0.70;;;12.70;72.10;;;;;;11461724;25;20633;-76
2024/04/20 13:40:03;;;;;;;0.80;0.80;;;12.80;68.90;;;;;;11360065;25;20310;-76
2024/04/20 13:45:08;;;;;;;0.80;0.80;;;12.80;70.50;;;;;;11407197;25;20240;-77
2024/04/20 13:50:12;;;;;;;0.80;0.80;;;12.80;70.50;;;;;;11397804;25;20239;-78
2024/04/20 13:55:19;;;;;;;0.87;0.87;;;12.80;70.00;;;;;;11375381;25;20732;-76
2024/04/20 14:00:23;;;;;;;0.77;0.77;;;12.60;71.70;;;;;;11410081;25;20643;-77
2024/04/20 14:05:27;;;;;;;0.90;0.90;;;12.60;71.80;;;;;;11414447;25;20330;-76
2024/04/20 14:10:33;;;;;;;0.80;0.80;;;12.50;72.40;;;;;;11377709;25;20274;-76
2024/04/20 14:15:37;;;;;;;0.80;0.80;;;12.40;73.00;;;;;;11506026;25;20234;-76
2024/04/20 14:20:41;;;;;;;0.80;0.80;;;12.50;71.40;;;;;;11378225;25;20260;-76
2024/04/20 14:25:48;;;;;;;0.80;0.80;;;12.40;72.30;;;;;;11471909;25;20234;-77
2024/04/20 14:30:59;;;;;;;0.80;0.80;;;12.50;71.60;;;;;;11375781;25;20237;-77
2024/04/20 14:36:03;;;;;;;0.60;0.60;;;12.40;71.50;;;;;;11453378;25;20255;-77
2024/04/20 14:41:10;;;;;;;0.60;0.60;;;12.40;73.10;;;;;;11339948;26;20259;-76
2024/04/20 14:46:14;;;;;;;0.70;0.70;;;12.40;73.90;;;;;;11406570;25;20262;-78
2024/04/20 14:51:18;;;;;;;0.70;0.70;;;12.30;76.40;;;;;;11404548;26;20774;-79
2024/04/20 14:56:25;;;;;;;0.60;0.60;;;12.20;77.20;;;;;;11398969;26;20235;-77
2024/04/20 15:01:29;;;;;;;0.60;0.60;;;12.20;79.20;;;;;;11409489;26;20228;-76
2024/04/20 15:06:33;;;;;;;0.70;0.70;;;12.10;79.80;;;;;;11409459;25;20327;-76
2024/04/20 15:11:40;;;;;;;0.70;0.70;;;12.10;80.60;;;;;;11418128;25;20232;-76
2024/04/20 15:16:44;;;;;;;0.60;0.60;;;12.00;80.30;;;;;;11405285;25;20239;-76
2024/04/20 15:21:48;;;;;;;0.60;0.60;;;11.90;80.00;;;;;;11349162;25;21146;-76
2024/04/20 15:26:55;;;;;;;0.60;0.60;;;11.80;81.50;;;;;;11334350;25;20399;-76
2024/04/20 15:31:59;;;;;;;0.60;0.60;;;11.70;82.40;;;;;;11437773;25;20573;-77
2024/04/20 15:37:03;;;;;;;0.60;0.60;;;11.60;83.70;;;;;;11388523;26;20232;-77
2024/04/20 15:42:10;;;;;;;0.70;0.70;;;11.60;85.70;;;;;;11379429;25;20323;-77
2024/04/20 15:47:14;;;;;;;0.60;0.60;;;11.50;86.50;;;;;;11333425;26;20309;-77
2024/04/20 15:52:18;;;;;;;0.80;0.80;;;11.40;86.40;;;;;;11316704;26;20260;-77
2024/04/20 15:57:24;;;;;;;0.60;0.60;;;11.30;87.10;;;;;;11426635;25;20232;-77
2024/04/20 16:02:28;;;;;;;0.80;0.80;;;11.30;86.90;;;;;;11468627;25;20249;-77
2024/04/20 16:07:33;;;;;;;0.50;0.50;;;11.20;86.10;;;;;;11408812;25;20331;-76
2024/04/20 16:12:39;;;;;;;0.53;0.53;;;11.10;86.90;;;;;;11394578;26;20236;-76
2024/04/20 16:17:43;;;;;;;0.60;0.60;;;11.00;87.20;;;;;;11406212;26;20254;-77
2024/04/20 16:22:47;;;;;;;0.70;0.70;;;10.90;86.60;;;;;;11406302;26;20232;-79
2024/04/20 16:27:54;;;;;;;0.80;0.80;;;10.90;88.20;;;;;;11407656;25;20261;-76
2024/04/20 16:32:58;;;;;;;0.53;0.53;;;10.90;88.20;;;;;;11406709;26;20315;-77
2024/04/20 16:38:02;;;;;;;0.70;0.70;;;10.90;89.00;;;;;;11407159;26;20831;-77
2024/04/20 16:43:09;;;;;;;0.60;0.60;;;10.90;86.40;;;;;;11400594;25;20231;-76
2024/04/20 16:48:13;;;;;;;0.70;0.70;;;10.80;86.50;;;;;;11330876;26;20241;-76
2024/04/20 16:53:17;;;;;;;0.70;0.70;;;10.70;85.80;;;;;;11489486;25;21124;-77
2024/04/20 16:58:26;;;;;;;0.70;0.70;;;10.70;86.10;;;;;;11407678;25;20239;-76
2024/04/20 17:03:32;;;;;;;0.60;0.60;;;10.60;87.00;;;;;;11441405;25;20267;-77
2024/04/20 17:08:37;;;;;;;0.60;0.60;;;10.50;87.30;;;;;;11404413;25;20752;-76
2024/04/20 17:13:44;;;;;;;0.67;0.67;;;10.40;87.60;;;;;;11298065;26;20312;-75
2024/04/20 17:18:49;;;;;;;0.70;0.70;;;10.20;88.80;;;;;;11297811;26;20256;-78
2024/04/20 17:23:53;;;;;;;0.80;0.80;;;10.00;90.20;;;;;;11326397;26;20228;-77
2024/04/20 17:29:00;;;;;;;0.60;0.60;;;9.80;91.50;;;;;;11328773;26;20217;-76
2024/04/20 17:34:04;;;;;;;0.80;0.80;;;9.60;92.00;;;;;;11412335;25;20239;-78
2024/04/20 17:39:08;;;;;;;0.70;0.70;;;9.50;92.60;;;;;;11455833;25;20258;-78
2024/04/20 17:44:15;;;;;;;0.63;0.63;;;9.40;93.20;;;;;;11412562;25;20262;-79
2024/04/20 17:49:19;;;;;;;0.87;0.87;;;9.30;93.40;;;;;;11412096;26;20733;-77
2024/04/20 17:54:23;;;;;;;0.70;0.70;;;9.30;93.60;;;;;;11331251;26;20244;-75
2024/04/20 17:59:29;;;;;;;0.30;0.30;;;9.30;93.70;;;;;;11333496;25;20728;-76
2024/04/20 18:04:33;;;;;;;0.50;0.50;;;9.30;94.00;;;;;;11411824;25;20640;-76
2024/04/20 18:09:37;;;;;;;0.60;0.60;;;9.30;94.00;;;;;;11348224;26;20259;-75
2024/04/20 18:14:44;;;;;;;0.70;0.70;;;9.30;93.80;;;;;;11411872;25;20228;-76
2024/04/20 18:19:48;;;;;;;0.67;0.67;;;9.30;93.90;;;;;;11350252;25;20577;-78
2024/04/20 18:24:52;;;;;;;0.70;0.70;;;9.30;93.80;;;;;;11335028;26;20331;-76
2024/04/20 18:29:59;;;;;;;0.70;0.70;;;9.30;93.90;;;;;;11393625;25;20325;-76
2024/04/20 18:35:03;;;;;;;0.60;0.60;;;9.30;94.00;;;;;;11360256;26;20240;-77
2024/04/20 18:40:08;;;;;;;0.70;0.70;;;9.30;93.80;;;;;;11353746;25;20717;-76
2024/04/20 18:45:15;;;;;;;0.67;0.67;;;9.30;93.40;;;;;;11338273;25;20237;-75
2024/04/20 18:50:19;;;;;;;0.60;0.60;;;9.10;93.30;;;;;;11356320;25;20239;-78
2024/04/20 18:55:23;;;;;;;0.80;0.80;;;9.10;93.70;;;;;;11410622;25;20702;-75
2024/04/20 19:00:29;;;;;;;0.63;0.63;;;9.10;94.20;;;;;;11349585;25;20646;-76
2024/04/20 19:05:33;;;;;;;0.70;0.70;;;9.10;94.20;;;;;;11366286;26;20224;-76
2024/04/20 19:10:37;;;;;;;0.73;0.73;;;9.20;94.30;;;;;;11388063;26;20224;-77
2024/04/20 19:15:51;;;;;;;0.50;0.50;;;9.20;93.70;;;;;;11409462;25;20232;-76
2024/04/20 19:20:56;;;;;;;0.90;0.90;;;9.20;93.40;;;;;;11363257;25;20236;-75
2024/04/20 19:26:03;;;;;;;0.90;0.90;;;9.20;93.20;;;;;;11302380;26;20334;-76
2024/04/20 19:31:12;;;;;;;0.50;0.50;;;9.10;93.40;;;;;;11408185;25;20231;-76
2024/04/20 19:36:17;;;;;;;0.50;0.50;;;9.00;93.30;;;;;;11408273;25;20228;-78
2024/04/20 19:41:22;;;;;;;0.60;0.60;;;9.00;93.70;;;;;;11385194;26;20270;-75
2024/04/20 19:46:29;;;;;;;0.70;0.70;;;8.90;93.80;;;;;;11372576;26;20635;-75
2024/04/20 19:51:33;;;;;;;0.90;0.90;;;8.80;93.80;;;;;;11407715;26;20296;-79
2024/04/20 19:56:38;;;;;;;0.47;0.47;;;8.70;93.80;;;;;;11403705;25;20240;-75
2024/04/20 20:01:44;;;;;;;0.67;0.67;;;8.60;93.80;;;;;;11406637;26;20594;-78
2024/04/20 20:06:48;;;;;;;0.80;0.80;;;8.60;93.70;;;;;;11409117;25;20339;-77
2024/04/20 20:11:53;;;;;;;0.83;0.83;;;8.50;93.80;;;;;;11399189;25;20232;-80
2024/04/20 20:16:59;;;;;;;0.70;0.70;;;8.30;93.60;;;;;;11331619;26;20241;-75
2024/04/20 20:22:04;;;;;;;0.70;0.70;;;8.30;93.70;;;;;;11403344;25;20267;-75
2024/04/20 20:27:07;;;;;;;0.80;0.80;;;8.20;93.70;;;;;;11373124;25;20624;-74
2024/04/20 20:32:14;;;;;;;0.80;0.80;;;8.10;93.60;;;;;;11439451;25;20226;-76
2024/04/20 20:37:19;;;;;;;0.63;0.63;;;8.10;93.40;;;;;;11407302;25;20334;-78
2024/04/20 20:42:23;;;;;;;0.90;0.90;;;8.00;93.40;;;;;;11407179;26;20646;-76
2024/04/20 20:47:30;;;;;;;0.80;0.80;;;7.90;93.30;;;;;;11407319;26;20236;-75
2024/04/20 20:52:34;;;;;;;0.90;0.90;;;7.90;93.50;;;;;;11405864;25;20270;-79
2024/04/20 20:57:38;;;;;;;0.90;0.90;;;7.90;93.40;;;;;;11366626;25;20304;-77
2024/04/20 21:02:45;;;;;;;0.70;0.70;;;7.80;93.40;;;;;;11415316;25;20228;-76
2024/04/20 21:07:49;;;;;;;1.07;1.07;;;7.80;93.60;;;;;;11406084;26;20240;-78
2024/04/20 21:12:53;;;;;;;0.70;0.70;;;7.80;93.60;;;;;;11323794;25;20232;-77
2024/04/20 21:18:00;;;;;;;0.70;0.70;;;7.70;93.70;;;;;;11331704;26;20237;-77
2024/04/20 21:23:04;;;;;;;0.70;0.70;;;7.70;93.70;;;;;;11352665;25;20316;-78
2024/04/20 21:28:08;;;;;;;0.70;0.70;;;7.70;93.90;;;;;;11339492;25;20645;-77
2024/04/20 21:33:15;;;;;;;0.60;0.60;;;7.70;94.00;;;;;;11377684;25;20240;-78
2024/04/20 21:38:19;;;;;;;0.60;0.60;;;7.70;94.00;;;;;;11362907;25;20240;-77
2024/04/20 21:43:23;;;;;;;0.60;0.60;;;7.70;94.00;;;;;;11409517;25;20323;-78
2024/04/20 21:48:32;;;;;;;0.70;0.70;;;7.60;93.90;;;;;;11402728;25;20228;-76
2024/04/20 21:53:36;;;;;;;0.60;0.60;;;7.60;94.00;;;;;;11403840;26;20224;-78
2024/04/20 21:58:41;;;;;;;0.50;0.50;;;7.50;94.20;;;;;;11469872;25;20235;-77
2024/04/20 22:03:48;;;;;;;0.50;0.50;;;7.40;94.20;;;;;;11410767;25;20235;-78
2024/04/20 22:08:52;;;;;;;0.60;0.60;;;7.40;99.90;;;;;;11403136;26;20307;-77
2024/04/20 22:13:56;;;;;;;0.43;0.43;;;7.30;99.90;;;;;;11403342;26;20239;-76
2024/04/20 22:19:03;;;;;;;0.60;0.60;;;7.20;99.90;;;;;;11408345;26;20224;-77
2024/04/20 22:24:08;;;;;;;0.77;0.77;;;7.10;97.50;;;;;;11410846;26;20228;-72
2024/04/20 22:29:12;;;;;;;0.70;0.70;;;7.00;97.40;;;;;;11389172;25;20236;-74
2024/04/20 22:34:18;;;;;;;0.57;0.57;;;6.90;97.50;;;;;;11406008;25;20274;-78
2024/04/20 22:39:22;;;;;;;0.80;0.80;;;6.90;97.90;;;;;;11399167;26;20236;-76
2024/04/20 22:44:26;;;;;;;0.70;0.70;;;7.00;98.20;;;;;;11410424;25;20330;-76
2024/04/20 22:49:33;;;;;;;0.70;0.70;;;7.00;98.40;;;;;;11411042;26;20255;-77
2024/04/20 22:54:37;;;;;;;0.80;0.80;;;7.00;98.40;;;;;;11410555;26;20260;-76
2024/04/20 22:59:41;;;;;;;0.60;0.60;;;7.10;98.50;;;;;;11410015;26;20257;-77
2024/04/20 23:04:51;;;;;;;0.60;0.60;;;7.20;98.70;;;;;;11406415;26;20262;-75
2024/04/20 23:09:54;;;;;;;0.60;0.60;;;7.30;98.70;;;;;;11342434;26;20326;-75
2024/04/20 23:14:58;;;;;;;0.80;0.80;;;7.40;98.70;;;;;;11409934;25;20706;-75
2024/04/20 23:20:06;;;;;;;0.67;0.67;;;7.50;98.80;;;;;;11409007;26;20235;-77
2024/04/20 23:25:10;;;;;;;0.80;0.80;;;7.70;99.00;;;;;;11409340;25;20307;-76
2024/04/20 23:30:14;;;;;;;0.70;0.70;;;7.70;98.40;;;;;;11400817;26;20977;-74
2024/04/20 23:35:20;;;;;;;0.60;0.60;;;7.70;98.30;;;;;;11405817;25;20232;-78
2024/04/20 23:40:24;;;;;;;0.60;0.60;;;7.80;98.00;;;;;;11345140;26;20240;-77
2024/04/20 23:45:29;;;;;;;0.50;0.50;;;7.80;98.00;;;;;;11407912;25;20270;-78
2024/04/20 23:50:35;;;;;;;0.50;0.50;;;7.80;97.70;;;;;;11408516;26;20228;-77
2024/04/20 23:55:39;;;;;;;0.50;0.50;;;7.80;97.70;;;;;;11408325;25;20236;-76
